sensor_id;sensor_type;location;lat;lon;timestamp;temperature;humidity
19224;DHT22;9746;47.180;9.776;2024-03-08T07:34:30;-0.20;99.90
19224;DHT22;9746;47.180;9.776;2024-03-08T07:36:59;-0.10;99.90
19224;DHT22;9746;47.180;9.776;2024-03-08T07:39:27;-0.10;99.90
19224;DHT22;9746;47.180;9.776;2024-03-08T07:41:55;0.00;99.90
19224;DHT22;9746;47.180;9.776;2024-03-08T07:44:22;0.10;99.90
19224;DHT22;9746;47.180;9.776;2024-03-08T07:46:50;0.10;99.90
19224;DHT22;9746;47.180;9.776;2024-03-08T07:49:18;0.10;99.90
19224;DHT22;9746;47.180;9.776;2024-03-08T07:51:53;0.20;99.90
19224;DHT22;9746;47.180;9.776;2024-03-08T07:54:20;0.20;99.90
19224;DHT22;9746;47.180;9.776;2024-03-08T07:56:48;0.30;99.90
19224;DHT22;9746;47.180;9.776;2024-03-08T07:59:17;0.40;99.90
19224;DHT22;9746;47.180;9.776;2024-03-08T08:01:48;0.50;99.90
19224;DHT22;9746;47.180;9.776;2024-03-08T08:04:15;0.70;99.90
19224;DHT22;9746;47.180;9.776;2024-03-08T08:07:10;0.90;99.90
19224;DHT22;9746;47.180;9.776;2024-03-08T08:09:37;1.30;99.90
19224;DHT22;9746;47.180;9.776;2024-03-08T08:12:13;1.60;99.90
19224;DHT22;9746;47.180;9.776;2024-03-08T08:14:41;1.80;99.90
19224;DHT22;9746;47.180;9.776;2024-03-08T08:17:08;2.00;99.90
19224;DHT22;9746;47.180;9.776;2024-03-08T08:19:35;2.30;99.90
19224;DHT22;9746;47.180;9.776;2024-03-08T08:22:11;2.50;99.90
19224;DHT22;9746;47.180;9.776;2024-03-08T08:24:38;2.80;99.90
19224;DHT22;9746;47.180;9.776;2024-03-08T08:27:06;3.10;99.90
19224;DHT22;9746;47.180;9.776;2024-03-08T08:29:35;3.50;99.90
19224;DHT22;9746;47.180;9.776;2024-03-08T08:32:06;3.70;99.90
19224;DHT22;9746;47.180;9.776;2024-03-08T08:34:34;3.90;99.90
19224;DHT22;9746;47.180;9.776;2024-03-08T08:37:08;4.10;99.90
19224;DHT22;9746;47.180;9.776;2024-03-08T08:39:38;4.30;99.90
19224;DHT22;9746;47.180;9.776;2024-03-08T08:42:20;4.60;99.90
19224;DHT22;9746;47.180;9.776;2024-03-08T08:44:48;4.90;99.90
19224;DHT22;9746;47.180;9.776;2024-03-08T08:47:19;5.20;99.90
19224;DHT22;9746;47.180;9.776;2024-03-08T08:49:46;5.40;99.90
19224;DHT22;9746;47.180;9.776;2024-03-08T08:52:17;5.60;99.90
19224;DHT22;9746;47.180;9.776;2024-03-08T08:54:47;6.10;99.90
19224;DHT22;9746;47.180;9.776;2024-03-08T08:57:15;6.40;99.90
19224;DHT22;9746;47.180;9.776;2024-03-08T08:59:43;6.80;99.90
19224;DHT22;9746;47.180;9.776;2024-03-08T09:02:22;7.10;99.90
19224;DHT22;9746;47.180;9.776;2024-03-08T09:04:49;7.50;99.90
19224;DHT22;9746;47.180;9.776;2024-03-08T09:07:22;7.70;99.90
19224;DHT22;9746;47.180;9.776;2024-03-08T09:09:51;8.00;99.90
19224;DHT22;9746;47.180;9.776;2024-03-08T09:12:22;8.50;99.90
19224;DHT22;9746;47.180;9.776;2024-03-08T09:14:50;8.90;99.90
19224;DHT22;9746;47.180;9.776;2024-03-08T09:17:18;9.20;99.90
19224;DHT22;9746;47.180;9.776;2024-03-08T09:19:46;9.50;99.90
19224;DHT22;9746;47.180;9.776;2024-03-08T09:22:26;9.70;99.90
19224;DHT22;9746;47.180;9.776;2024-03-08T09:24:55;10.10;99.90
19224;DHT22;9746;47.180;9.776;2024-03-08T09:27:29;10.20;99.90
19224;DHT22;9746;47.180;9.776;2024-03-08T09:29:56;10.50;99.90
19224;DHT22;9746;47.180;9.776;2024-03-08T09:32:40;10.80;99.90
19224;DHT22;9746;47.180;9.776;2024-03-08T09:35:10;10.80;99.90
19224;DHT22;9746;47.180;9.776;2024-03-08T09:37:46;10.80;99.90
19224;DHT22;9746;47.180;9.776;2024-03-08T09:40:21;11.10;99.90
19224;DHT22;9746;47.180;9.776;2024-03-08T09:42:50;11.40;99.90
19224;DHT22;9746;47.180;9.776;2024-03-08T09:45:20;11.70;99.90
19224;DHT22;9746;47.180;9.776;2024-03-08T09:47:49;12.00;99.90
19224;DHT22;9746;47.180;9.776;2024-03-08T09:50:17;12.20;99.90
19224;DHT22;9746;47.180;9.776;2024-03-08T09:52:50;12.40;99.90
19224;DHT22;9746;47.180;9.776;2024-03-08T09:55:18;12.70;99.90
19224;DHT22;9746;47.180;9.776;2024-03-08T09:57:50;12.90;99.90
19224;DHT22;9746;47.180;9.776;2024-03-08T10:00:38;13.20;99.90
19224;DHT22;9746;47.180;9.776;2024-03-08T10:03:06;13.50;99.90
19224;DHT22;9746;47.180;9.776;2024-03-08T10:05:35;13.70;99.90
19224;DHT22;9746;47.180;9.776;2024-03-08T10:08:03;14.00;99.90
19224;DHT22;9746;47.180;9.776;2024-03-08T10:10:34;14.30;99.90
19224;DHT22;9746;47.180;9.776;2024-03-08T10:13:06;14.50;99.90
19224;DHT22;9746;47.180;9.776;2024-03-08T10:15:34;14.80;99.90
19224;DHT22;9746;47.180;9.776;2024-03-08T10:18:05;15.00;99.90
19224;DHT22;9746;47.180;9.776;2024-03-08T10:20:35;15.20;99.90
19224;DHT22;9746;47.180;9.776;2024-03-08T10:23:03;15.60;99.90
19224;DHT22;9746;47.180;9.776;2024-03-08T10:25:31;15.90;99.90
19224;DHT22;9746;47.180;9.776;2024-03-08T10:28:06;16.20;99.90
19224;DHT22;9746;47.180;9.776;2024-03-08T10:30:34;16.60;99.90
19224;DHT22;9746;47.180;9.776;2024-03-08T10:33:08;16.60;99.90
19224;DHT22;9746;47.180;9.776;2024-03-08T10:35:36;16.90;99.90
19224;DHT22;9746;47.180;9.776;2024-03-08T10:38:05;17.30;99.90
19224;DHT22;9746;47.180;9.776;2024-03-08T10:40:35;17.60;99.90
19224;DHT22;9746;47.180;9.776;2024-03-08T10:43:12;17.70;99.90
19224;DHT22;9746;47.180;9.776;2024-03-08T10:45:46;17.80;99.90
19224;DHT22;9746;47.180;9.776;2024-03-08T10:48:28;18.20;99.90
19224;DHT22;9746;47.180;9.776;2024-03-08T10:50:57;18.40;99.90
19224;DHT22;9746;47.180;9.776;2024-03-08T10:53:28;18.70;99.90
19224;DHT22;9746;47.180;9.776;2024-03-08T10:55:58;18.90;99.90
19224;DHT22;9746;47.180;9.776;2024-03-08T10:58:28;18.90;99.90
19224;DHT22;9746;47.180;9.776;2024-03-08T11:00:56;19.30;99.90
19224;DHT22;9746;47.180;9.776;2024-03-08T11:03:47;19.50;99.90
19224;DHT22;9746;47.180;9.776;2024-03-08T11:06:21;19.20;99.90
19224;DHT22;9746;47.180;9.776;2024-03-08T11:08:50;19.20;99.90
19224;DHT22;9746;47.180;9.776;2024-03-08T11:11:27;19.60;99.90
19224;DHT22;9746;47.180;9.776;2024-03-08T11:13:58;19.40;99.90
19224;DHT22;9746;47.180;9.776;2024-03-08T11:16:40;19.60;99.90
19224;DHT22;9746;47.180;9.776;2024-03-08T11:19:24;19.80;99.90
19224;DHT22;9746;47.180;9.776;2024-03-08T11:22:13;20.20;99.90
19224;DHT22;9746;47.180;9.776;2024-03-08T11:24:47;20.30;99.90
19224;DHT22;9746;47.180;9.776;2024-03-08T11:27:16;20.60;99.90
19224;DHT22;9746;47.180;9.776;2024-03-08T11:30:00;21.10;99.90
19224;DHT22;9746;47.180;9.776;2024-03-08T11:32:35;21.10;99.90
19224;DHT22;9746;47.180;9.776;2024-03-08T11:35:08;21.10;99.90
19224;DHT22;9746;47.180;9.776;2024-03-08T11:37:45;21.40;99.90
19224;DHT22;9746;47.180;9.776;2024-03-08T11:40:14;21.60;99.90
19224;DHT22;9746;47.180;9.776;2024-03-08T11:42:45;21.70;99.90
19224;DHT22;9746;47.180;9.776;2024-03-08T11:45:17;22.30;99.90
19224;DHT22;9746;47.180;9.776;2024-03-08T11:47:49;22.70;99.90
19224;DHT22;9746;47.180;9.776;2024-03-08T11:50:16;23.10;99.60
19224;DHT22;9746;47.180;9.776;2024-03-08T11:52:47;23.00;99.10
19224;DHT22;9746;47.180;9.776;2024-03-08T11:55:15;23.30;99.70
19224;DHT22;9746;47.180;9.776;2024-03-08T11:57:45;23.50;98.20
19224;DHT22;9746;47.180;9.776;2024-03-08T12:00:18;23.60;97.00
19224;DHT22;9746;47.180;9.776;2024-03-08T12:03:07;23.30;95.90
19224;DHT22;9746;47.180;9.776;2024-03-08T12:05:35;23.00;96.40
19224;DHT22;9746;47.180;9.776;2024-03-08T12:08:10;23.50;95.50
19224;DHT22;9746;47.180;9.776;2024-03-08T12:10:40;23.50;95.40
19224;DHT22;9746;47.180;9.776;2024-03-08T12:13:14;23.60;94.50
19224;DHT22;9746;47.180;9.776;2024-03-08T12:15:45;23.70;94.20
19224;DHT22;9746;47.180;9.776;2024-03-08T12:18:14;23.90;93.90
19224;DHT22;9746;47.180;9.776;2024-03-08T12:20:42;24.10;93.70
19224;DHT22;9746;47.180;9.776;2024-03-08T12:23:16;24.20;93.20
19224;DHT22;9746;47.180;9.776;2024-03-08T12:25:44;24.40;93.70
19224;DHT22;9746;47.180;9.776;2024-03-08T12:28:21;25.00;93.00
19224;DHT22;9746;47.180;9.776;2024-03-08T12:30:51;25.60;91.10
19224;DHT22;9746;47.180;9.776;2024-03-08T12:33:22;26.20;90.40
19224;DHT22;9746;47.180;9.776;2024-03-08T12:35:54;26.70;90.00
19224;DHT22;9746;47.180;9.776;2024-03-08T12:38:28;26.80;89.00
19224;DHT22;9746;47.180;9.776;2024-03-08T12:40:59;26.90;87.20
19224;DHT22;9746;47.180;9.776;2024-03-08T12:43:29;27.50;85.40
19224;DHT22;9746;47.180;9.776;2024-03-08T12:45:59;27.80;82.20
19224;DHT22;9746;47.180;9.776;2024-03-08T12:48:27;27.90;83.60
19224;DHT22;9746;47.180;9.776;2024-03-08T12:50:55;28.00;80.40
19224;DHT22;9746;47.180;9.776;2024-03-08T12:53:24;28.20;78.90
19224;DHT22;9746;47.180;9.776;2024-03-08T12:55:54;28.20;77.10
19224;DHT22;9746;47.180;9.776;2024-03-08T12:58:26;28.20;77.00
19224;DHT22;9746;47.180;9.776;2024-03-08T13:00:55;28.10;78.90
19224;DHT22;9746;47.180;9.776;2024-03-08T13:03:25;28.60;77.60
19224;DHT22;9746;47.180;9.776;2024-03-08T13:05:54;28.50;75.00
19224;DHT22;9746;47.180;9.776;2024-03-08T13:08:24;28.00;76.40
19224;DHT22;9746;47.180;9.776;2024-03-08T13:10:54;27.80;75.50
19224;DHT22;9746;47.180;9.776;2024-03-08T13:13:23;28.00;76.10
19224;DHT22;9746;47.180;9.776;2024-03-08T13:15:52;28.20;73.90
19224;DHT22;9746;47.180;9.776;2024-03-08T13:21:12;28.30;72.70
19224;DHT22;9746;47.180;9.776;2024-03-08T13:23:42;28.70;72.50
19224;DHT22;9746;47.180;9.776;2024-03-08T13:26:13;28.90;73.10
19224;DHT22;9746;47.180;9.776;2024-03-08T13:28:48;29.10;72.80
19224;DHT22;9746;47.180;9.776;2024-03-08T13:31:19;29.80;70.30
19224;DHT22;9746;47.180;9.776;2024-03-08T13:33:48;29.80;70.80
19224;DHT22;9746;47.180;9.776;2024-03-08T13:36:19;30.10;68.50
19224;DHT22;9746;47.180;9.776;2024-03-08T13:38:48;30.20;66.20
19224;DHT22;9746;47.180;9.776;2024-03-08T13:41:16;30.10;65.80
19224;DHT22;9746;47.180;9.776;2024-03-08T13:43:48;29.80;65.90
19224;DHT22;9746;47.180;9.776;2024-03-08T13:46:16;29.70;66.30
19224;DHT22;9746;47.180;9.776;2024-03-08T13:48:56;29.80;66.50
19224;DHT22;9746;47.180;9.776;2024-03-08T13:51:24;30.30;65.90
19224;DHT22;9746;47.180;9.776;2024-03-08T13:53:53;30.10;65.10
19224;DHT22;9746;47.180;9.776;2024-03-08T13:56:21;29.60;65.70
19224;DHT22;9746;47.180;9.776;2024-03-08T13:58:57;29.30;66.80
19224;DHT22;9746;47.180;9.776;2024-03-08T14:01:24;29.30;66.80
19224;DHT22;9746;47.180;9.776;2024-03-08T14:03:56;29.20;65.60
19224;DHT22;9746;47.180;9.776;2024-03-08T14:06:25;29.30;66.20
19224;DHT22;9746;47.180;9.776;2024-03-08T14:08:52;28.80;65.20
19224;DHT22;9746;47.180;9.776;2024-03-08T14:11:22;28.10;66.80
19224;DHT22;9746;47.180;9.776;2024-03-08T14:13:50;28.00;68.20
19224;DHT22;9746;47.180;9.776;2024-03-08T14:16:18;28.30;66.60
19224;DHT22;9746;47.180;9.776;2024-03-08T14:18:51;28.20;67.10
19224;DHT22;9746;47.180;9.776;2024-03-08T14:21:18;28.30;65.60
19224;DHT22;9746;47.180;9.776;2024-03-08T14:23:52;28.20;65.90
19224;DHT22;9746;47.180;9.776;2024-03-08T14:26:20;28.20;66.20
19224;DHT22;9746;47.180;9.776;2024-03-08T14:28:47;28.80;65.80
19224;DHT22;9746;47.180;9.776;2024-03-08T14:31:17;29.20;65.40
19224;DHT22;9746;47.180;9.776;2024-03-08T14:33:47;29.50;64.30
19224;DHT22;9746;47.180;9.776;2024-03-08T14:36:14;29.20;64.00
19224;DHT22;9746;47.180;9.776;2024-03-08T14:38:56;28.70;64.40
19224;DHT22;9746;47.180;9.776;2024-03-08T14:41:23;28.70;65.00
19224;DHT22;9746;47.180;9.776;2024-03-08T14:43:53;28.40;65.20
19224;DHT22;9746;47.180;9.776;2024-03-08T14:46:21;28.20;64.70
19224;DHT22;9746;47.180;9.776;2024-03-08T14:48:49;28.10;65.20
19224;DHT22;9746;47.180;9.776;2024-03-08T14:51:17;27.70;65.70
19224;DHT22;9746;47.180;9.776;2024-03-08T14:53:47;27.80;66.40
19224;DHT22;9746;47.180;9.776;2024-03-08T14:56:17;27.70;65.80
19224;DHT22;9746;47.180;9.776;2024-03-08T14:58:51;27.50;66.70
19224;DHT22;9746;47.180;9.776;2024-03-08T15:01:18;27.20;66.50
19224;DHT22;9746;47.180;9.776;2024-03-08T15:04:02;26.80;67.50
19224;DHT22;9746;47.180;9.776;2024-03-08T15:06:34;26.90;67.60
19224;DHT22;9746;47.180;9.776;2024-03-08T15:09:03;27.80;67.70
19224;DHT22;9746;47.180;9.776;2024-03-08T15:11:38;28.10;66.00
19224;DHT22;9746;47.180;9.776;2024-03-08T15:14:07;28.50;65.10
19224;DHT22;9746;47.180;9.776;2024-03-08T15:16:37;28.60;64.90
19224;DHT22;9746;47.180;9.776;2024-03-08T15:19:06;28.60;65.10
19224;DHT22;9746;47.180;9.776;2024-03-08T15:21:34;27.70;65.50
19224;DHT22;9746;47.180;9.776;2024-03-08T15:24:03;28.00;65.70
19224;DHT22;9746;47.180;9.776;2024-03-08T15:26:35;28.60;65.30
19224;DHT22;9746;47.180;9.776;2024-03-08T15:29:04;28.90;65.60
19224;DHT22;9746;47.180;9.776;2024-03-08T15:31:32;28.60;65.00
19224;DHT22;9746;47.180;9.776;2024-03-08T15:34:16;28.30;65.90
19224;DHT22;9746;47.180;9.776;2024-03-08T15:36:53;28.00;64.90
19224;DHT22;9746;47.180;9.776;2024-03-08T15:39:24;27.90;65.90
19224;DHT22;9746;47.180;9.776;2024-03-08T15:41:51;27.50;65.40
19224;DHT22;9746;47.180;9.776;2024-03-08T15:44:24;27.60;66.10
19224;DHT22;9746;47.180;9.776;2024-03-08T15:46:53;27.30;66.10
19224;DHT22;9746;47.180;9.776;2024-03-08T15:49:21;26.80;65.60
19224;DHT22;9746;47.180;9.776;2024-03-08T15:51:50;25.80;67.00
19224;DHT22;9746;47.180;9.776;2024-03-08T15:54:19;23.80;69.60
19224;DHT22;9746;47.180;9.776;2024-03-08T15:56:48;22.60;72.10
19224;DHT22;9746;47.180;9.776;2024-03-08T15:59:18;21.60;75.50
19224;DHT22;9746;47.180;9.776;2024-03-08T16:01:48;20.80;76.30
19224;DHT22;9746;47.180;9.776;2024-03-08T16:04:17;19.70;79.70
19224;DHT22;9746;47.180;9.776;2024-03-08T16:06:46;18.60;80.50
19224;DHT22;9746;47.180;9.776;2024-03-08T16:09:15;18.20;81.70
19224;DHT22;9746;47.180;9.776;2024-03-08T16:11:43;17.60;83.30
19224;DHT22;9746;47.180;9.776;2024-03-08T16:14:15;17.20;85.00
19224;DHT22;9746;47.180;9.776;2024-03-08T16:16:43;16.80;86.70
19224;DHT22;9746;47.180;9.776;2024-03-08T16:19:14;16.20;88.30
19224;DHT22;9746;47.180;9.776;2024-03-08T16:21:41;15.90;89.60
19224;DHT22;9746;47.180;9.776;2024-03-08T16:24:09;15.50;89.80
19224;DHT22;9746;47.180;9.776;2024-03-08T16:26:37;15.30;90.60
19224;DHT22;9746;47.180;9.776;2024-03-08T16:29:07;15.10;91.00
19224;DHT22;9746;47.180;9.776;2024-03-08T16:31:53;15.00;91.50
19224;DHT22;9746;47.180;9.776;2024-03-08T16:34:34;14.50;92.00
19224;DHT22;9746;47.180;9.776;2024-03-08T16:37:04;13.60;93.10
19224;DHT22;9746;47.180;9.776;2024-03-08T16:39:33;13.50;93.70
19224;DHT22;9746;47.180;9.776;2024-03-08T16:42:00;13.30;94.30
19224;DHT22;9746;47.180;9.776;2024-03-08T16:44:35;12.90;96.00
19224;DHT22;9746;47.180;9.776;2024-03-08T16:47:06;12.60;96.70
19224;DHT22;9746;47.180;9.776;2024-03-08T16:49:45;12.50;97.20
19224;DHT22;9746;47.180;9.776;2024-03-08T16:52:14;12.50;97.70
19224;DHT22;9746;47.180;9.776;2024-03-08T16:54:50;12.50;98.60
19224;DHT22;9746;47.180;9.776;2024-03-08T16:57:18;12.30;98.90
19224;DHT22;9746;47.180;9.776;2024-03-08T16:59:51;12.20;99.50
19224;DHT22;9746;47.180;9.776;2024-03-08T17:02:19;12.00;99.90
19224;DHT22;9746;47.180;9.776;2024-03-08T17:04:48;11.90;99.90
19224;DHT22;9746;47.180;9.776;2024-03-08T17:07:15;11.70;99.90
19224;DHT22;9746;47.180;9.776;2024-03-08T17:09:42;11.50;99.90
19224;DHT22;9746;47.180;9.776;2024-03-08T17:12:10;11.40;99.90
19224;DHT22;9746;47.180;9.776;2024-03-08T17:14:45;11.20;99.90
19224;DHT22;9746;47.180;9.776;2024-03-08T17:17:13;11.10;99.90
19224;DHT22;9746;47.180;9.776;2024-03-08T17:19:54;10.80;99.90
19224;DHT22;9746;47.180;9.776;2024-03-08T17:22:22;10.70;99.90
19224;DHT22;9746;47.180;9.776;2024-03-08T17:24:52;10.60;99.90
19224;DHT22;9746;47.180;9.776;2024-03-08T17:27:20;10.60;99.90
19224;DHT22;9746;47.180;9.776;2024-03-08T17:30:00;10.50;99.90
19224;DHT22;9746;47.180;9.776;2024-03-08T17:32:35;10.40;99.90
19224;DHT22;9746;47.180;9.776;2024-03-08T17:35:05;10.30;99.90
19224;DHT22;9746;47.180;9.776;2024-03-08T17:37:38;10.10;99.90
19224;DHT22;9746;47.180;9.776;2024-03-08T17:40:09;9.90;99.90
19224;DHT22;9746;47.180;9.776;2024-03-08T17:42:38;9.80;99.90
19224;DHT22;9746;47.180;9.776;2024-03-08T17:45:16;9.80;99.90
19224;DHT22;9746;47.180;9.776;2024-03-08T17:47:44;9.50;99.90
19224;DHT22;9746;47.180;9.776;2024-03-08T17:50:19;9.20;99.90
19224;DHT22;9746;47.180;9.776;2024-03-08T17:52:47;8.90;99.90
19224;DHT22;9746;47.180;9.776;2024-03-08T17:55:23;8.90;99.90
19224;DHT22;9746;47.180;9.776;2024-03-08T17:57:52;8.70;99.90
19224;DHT22;9746;47.180;9.776;2024-03-08T18:00:28;8.60;99.90
19224;DHT22;9746;47.180;9.776;2024-03-08T18:02:59;8.60;99.90
19224;DHT22;9746;47.180;9.776;2024-03-08T18:05:29;8.40;99.90
19224;DHT22;9746;47.180;9.776;2024-03-08T18:07:58;8.30;99.90
19224;DHT22;9746;47.180;9.776;2024-03-08T18:10:30;8.20;99.90
19224;DHT22;9746;47.180;9.776;2024-03-08T18:13:00;8.10;99.90
19224;DHT22;9746;47.180;9.776;2024-03-08T18:15:38;8.10;99.90
19224;DHT22;9746;47.180;9.776;2024-03-08T18:18:06;8.10;99.90
19224;DHT22;9746;47.180;9.776;2024-03-08T18:20:46;8.10;99.90
19224;DHT22;9746;47.180;9.776;2024-03-08T18:23:14;8.00;99.90
19224;DHT22;9746;47.180;9.776;2024-03-08T18:25:43;8.00;99.90
19224;DHT22;9746;47.180;9.776;2024-03-08T18:28:11;7.80;99.90
19224;DHT22;9746;47.180;9.776;2024-03-08T18:30:48;7.80;99.90
19224;DHT22;9746;47.180;9.776;2024-03-08T18:33:17;7.80;99.90
19224;DHT22;9746;47.180;9.776;2024-03-08T18:35:48;7.40;99.90
19224;DHT22;9746;47.180;9.776;2024-03-08T18:38:15;7.40;99.90
19224;DHT22;9746;47.180;9.776;2024-03-08T18:40:45;7.40;99.90
19224;DHT22;9746;47.180;9.776;2024-03-08T18:43:13;7.40;99.90
19224;DHT22;9746;47.180;9.776;2024-03-08T18:45:49;7.40;99.90
19224;DHT22;9746;47.180;9.776;2024-03-08T18:48:17;7.40;99.90
19224;DHT22;9746;47.180;9.776;2024-03-08T18:50:53;7.40;99.90
19224;DHT22;9746;47.180;9.776;2024-03-08T18:53:21;7.30;99.90
19224;DHT22;9746;47.180;9.776;2024-03-08T18:55:57;7.30;99.90
19224;DHT22;9746;47.180;9.776;2024-03-08T18:58:24;7.30;99.90
19224;DHT22;9746;47.180;9.776;2024-03-08T19:01:08;7.20;99.90
19224;DHT22;9746;47.180;9.776;2024-03-08T19:03:37;7.10;99.90
19224;DHT22;9746;47.180;9.776;2024-03-08T19:06:10;7.10;99.90
19224;DHT22;9746;47.180;9.776;2024-03-08T19:08:37;7.10;99.90
19224;DHT22;9746;47.180;9.776;2024-03-08T19:11:05;7.00;99.90
19224;DHT22;9746;47.180;9.776;2024-03-08T19:13:45;7.00;99.90
19224;DHT22;9746;47.180;9.776;2024-03-08T19:16:12;7.00;99.90
19224;DHT22;9746;47.180;9.776;2024-03-08T19:18:41;7.00;99.90
19224;DHT22;9746;47.180;9.776;2024-03-08T19:21:19;7.00;99.90
19224;DHT22;9746;47.180;9.776;2024-03-08T19:23:50;6.90;99.90
19224;DHT22;9746;47.180;9.776;2024-03-08T19:26:27;6.80;99.90
19224;DHT22;9746;47.180;9.776;2024-03-08T19:29:11;6.80;99.90
19224;DHT22;9746;47.180;9.776;2024-03-08T19:31:59;6.80;99.90
19224;DHT22;9746;47.180;9.776;2024-03-08T19:34:35;6.80;99.90
19224;DHT22;9746;47.180;9.776;2024-03-08T19:37:07;6.80;99.90
19224;DHT22;9746;47.180;9.776;2024-03-08T19:39:54;6.90;99.90
19224;DHT22;9746;47.180;9.776;2024-03-08T19:42:26;6.90;99.90
19224;DHT22;9746;47.180;9.776;2024-03-08T19:45:15;7.00;99.90
19224;DHT22;9746;47.180;9.776;2024-03-08T19:47:43;7.10;99.90
19224;DHT22;9746;47.180;9.776;2024-03-08T19:50:17;7.20;99.90
19224;DHT22;9746;47.180;9.776;2024-03-08T19:52:48;7.20;99.90
19224;DHT22;9746;47.180;9.776;2024-03-08T19:55:26;7.20;99.90
19224;DHT22;9746;47.180;9.776;2024-03-08T19:57:59;7.30;99.90
19224;DHT22;9746;47.180;9.776;2024-03-08T20:00:34;7.30;99.90
19224;DHT22;9746;47.180;9.776;2024-03-08T20:03:05;7.40;99.90
19224;DHT22;9746;47.180;9.776;2024-03-08T20:05:41;7.40;99.90
19224;DHT22;9746;47.180;9.776;2024-03-08T20:08:11;7.30;99.90
19224;DHT22;9746;47.180;9.776;2024-03-08T20:10:44;7.20;99.90
19224;DHT22;9746;47.180;9.776;2024-03-08T20:13:13;7.20;99.90
19224;DHT22;9746;47.180;9.776;2024-03-08T20:15:45;7.20;99.90
19224;DHT22;9746;47.180;9.776;2024-03-08T20:18:18;7.20;99.90
19224;DHT22;9746;47.180;9.776;2024-03-08T20:20:59;7.10;99.90
19224;DHT22;9746;47.180;9.776;2024-03-08T20:23:28;7.10;99.90
19224;DHT22;9746;47.180;9.776;2024-03-08T20:25:58;7.10;99.90
19224;DHT22;9746;47.180;9.776;2024-03-08T20:28:27;7.10;99.90
